createdAt,value
2019-05-15T00:00:55.660Z,1.83
2019-05-15T00:04:03.075Z,1.83
2019-05-15T00:07:10.298Z,1.83
2019-05-15T00:10:18.227Z,2.20
2019-05-15T00:13:25.538Z,1.90
2019-05-15T00:16:33.138Z,2.37
2019-05-15T00:19:40.303Z,2.57
2019-05-15T00:22:48.520Z,2.40
2019-05-15T00:25:58.271Z,2.27
2019-05-15T00:29:12.883Z,2.30
2019-05-15T00:32:14.635Z,2.17
2019-05-15T00:35:21.903Z,2.47
2019-05-15T00:38:29.486Z,2.30
2019-05-15T00:41:50.817Z,2.20
2019-05-15T00:44:46.503Z,2.50
2019-05-15T00:47:54.332Z,3.17
2019-05-15T00:51:01.706Z,3.00
2019-05-15T00:54:08.868Z,2.60
2019-05-15T00:57:16.181Z,2.70
2019-05-15T01:00:40.081Z,2.77
2019-05-15T01:03:49.178Z,3.53
2019-05-15T01:06:58.461Z,2.87
2019-05-15T01:10:06.547Z,3.23
2019-05-15T01:13:13.820Z,3.03
2019-05-15T01:16:21.015Z,3.57
2019-05-15T01:19:28.903Z,2.80
2019-05-15T01:22:39.037Z,3.13
2019-05-15T01:25:48.045Z,3.50
2019-05-15T01:28:55.220Z,2.90
2019-05-15T01:32:02.733Z,3.47
2019-05-15T01:35:10.696Z,3.07
2019-05-15T01:38:18.720Z,3.10
2019-05-15T01:41:28.175Z,3.80
2019-05-15T01:44:35.476Z,3.40
2019-05-15T01:47:42.723Z,3.30
2019-05-15T01:50:49.997Z,3.23
2019-05-15T01:53:58.414Z,2.97
2019-05-15T01:57:05.742Z,3.00
2019-05-15T02:00:13.637Z,2.90
2019-05-15T02:03:20.882Z,3.50
2019-05-15T02:06:28.580Z,3.13
2019-05-15T02:09:35.927Z,3.53
2019-05-15T02:12:43.451Z,3.10
2019-05-15T02:15:50.639Z,3.87
2019-05-15T02:18:58.198Z,4.10
2019-05-15T02:22:08.293Z,3.97
2019-05-15T02:25:15.686Z,3.90
2019-05-15T02:28:22.944Z,3.77
2019-05-15T02:31:30.547Z,4.10
2019-05-15T02:34:39.496Z,4.17
2019-05-15T02:37:48.870Z,3.63
2019-05-15T02:40:59.260Z,3.80
2019-05-15T02:44:06.402Z,3.90
2019-05-15T02:47:13.874Z,4.03
2019-05-15T02:50:21.700Z,3.13
2019-05-15T02:53:30.054Z,4.37
2019-05-15T02:56:39.238Z,4.40
2019-05-15T02:59:49.494Z,4.23
2019-05-15T03:02:56.045Z,3.60
2019-05-15T03:06:03.529Z,4.13
2019-05-15T03:09:10.698Z,4.47
2019-05-15T03:12:19.543Z,4.77
2019-05-15T03:15:28.940Z,4.00
2019-05-15T03:18:39.429Z,4.30
2019-05-15T03:21:45.575Z,4.20
2019-05-15T03:24:52.927Z,4.50
2019-05-15T03:28:00.312Z,4.37
2019-05-15T03:31:26.227Z,4.73
2019-05-15T03:34:23.513Z,4.57
2019-05-15T03:37:32.628Z,4.40
2019-05-15T03:40:39.360Z,4.40
2019-05-15T03:43:45.423Z,3.83
2019-05-15T03:46:53.344Z,4.10
2019-05-15T03:50:01.057Z,4.30
2019-05-15T03:53:10.094Z,4.67
2019-05-15T03:56:19.100Z,4.30
2019-05-15T03:59:29.450Z,3.87
2019-05-15T04:02:39.002Z,4.00
2019-05-15T04:05:45.685Z,4.03
2019-05-15T04:08:52.929Z,4.13
2019-05-15T04:12:00.218Z,4.47
2019-05-15T04:15:09.966Z,3.50
2019-05-15T04:18:19.859Z,4.23
2019-05-15T04:21:30.226Z,3.43
2019-05-15T04:24:39.531Z,3.97
2019-05-15T04:27:49.272Z,3.90
2019-05-15T04:31:15.222Z,3.20
2019-05-15T04:34:23.185Z,3.50
2019-05-15T04:37:30.354Z,3.50
2019-05-15T04:40:39.714Z,3.27
2019-05-15T04:43:49.405Z,3.43
2019-05-15T04:46:59.448Z,2.90
2019-05-15T04:50:08.866Z,3.30
2019-05-15T04:53:19.064Z,3.00
2019-05-15T04:56:25.201Z,3.37
2019-05-15T04:59:32.552Z,3.00
2019-05-15T05:02:40.544Z,3.43
2019-05-15T05:05:50.043Z,3.13
2019-05-15T05:08:59.702Z,2.23
2019-05-15T05:12:08.533Z,2.87
2019-05-15T05:15:18.831Z,2.40
2019-05-15T05:18:25.277Z,2.90
2019-05-15T05:21:32.788Z,2.27
2019-05-15T05:24:39.952Z,2.60
2019-05-15T05:27:48.631Z,2.30
2019-05-15T05:30:58.578Z,2.80
2019-05-15T05:34:08.127Z,2.83
2019-05-15T05:37:15.034Z,2.40
2019-05-15T05:40:22.629Z,2.73
2019-05-15T05:43:30.472Z,2.70
2019-05-15T05:46:39.751Z,2.43
2019-05-15T05:49:48.832Z,2.23
2019-05-15T05:52:57.944Z,2.43
2019-05-15T05:56:05.245Z,2.37
2019-05-15T05:59:12.402Z,1.90
2019-05-15T06:02:19.674Z,2.40
2019-05-15T06:05:28.100Z,2.50
2019-05-15T06:08:35.717Z,2.10
2019-05-15T06:11:42.978Z,2.40
2019-05-15T06:14:50.137Z,1.80
2019-05-15T06:17:58.565Z,2.27
2019-05-15T06:21:08.531Z,2.73
2019-05-15T06:24:15.045Z,1.87
2019-05-15T06:27:22.477Z,2.33
2019-05-15T06:30:31.154Z,3.87
2019-05-15T06:33:39.213Z,2.13
2019-05-15T06:36:48.591Z,1.73
2019-05-15T06:39:55.711Z,1.77
2019-05-15T06:43:03.213Z,3.37
2019-05-15T06:46:10.764Z,2.07
2019-05-15T06:49:18.703Z,1.80
2019-05-15T06:52:28.309Z,2.10
2019-05-15T06:55:35.625Z,1.90
2019-05-15T06:58:43.293Z,2.10
2019-05-15T07:01:51.020Z,1.80
2019-05-15T07:04:58.527Z,2.10
2019-05-15T07:08:08.891Z,1.90
2019-05-15T07:11:15.940Z,1.80
2019-05-15T07:14:23.862Z,2.07
2019-05-15T07:17:31.170Z,1.60
2019-05-15T07:20:39.153Z,1.73
2019-05-15T07:23:49.356Z,1.67
2019-05-15T07:26:58.930Z,1.67
2019-05-15T07:30:07.794Z,1.80
2019-05-15T07:33:15.372Z,1.93
2019-05-15T07:36:23.078Z,2.13
2019-05-15T07:39:30.432Z,1.67
2019-05-15T07:42:38.948Z,1.80
2019-05-15T07:45:52.378Z,1.80
2019-05-15T07:48:58.165Z,2.10
2019-05-15T07:52:05.253Z,1.67
2019-05-15T07:55:12.757Z,2.00
2019-05-15T07:58:21.806Z,2.03
2019-05-15T08:01:29.473Z,1.87
2019-05-15T08:04:38.090Z,2.00
2019-05-15T08:07:46.016Z,2.53
2019-05-15T08:10:53.473Z,2.37
2019-05-15T08:14:03.614Z,2.57
2019-05-15T08:17:10.167Z,3.10
2019-05-15T08:20:20.560Z,1.60
2019-05-15T08:23:28.480Z,2.77
2019-05-15T08:26:37.939Z,2.30
2019-05-15T08:29:48.566Z,2.13
2019-05-15T08:32:55.652Z,2.20
2019-05-15T08:36:03.117Z,1.97
2019-05-15T08:39:10.499Z,1.90
2019-05-15T08:42:18.829Z,1.93
2019-05-15T08:45:28.324Z,2.17
2019-05-15T08:48:38.140Z,2.47
2019-05-15T08:51:45.103Z,2.67
2019-05-15T08:54:52.511Z,2.43
2019-05-15T08:58:07.530Z,2.20
2019-05-15T09:01:10.001Z,1.87
2019-05-15T09:04:29.724Z,2.27
2019-05-15T09:07:28.721Z,2.40
2019-05-15T09:10:38.489Z,2.13
2019-05-15T09:13:46.119Z,2.60
2019-05-15T09:16:53.434Z,2.10
2019-05-15T09:20:00.917Z,2.87
2019-05-15T09:23:08.955Z,2.77
2019-05-15T09:26:19.254Z,2.60
2019-05-15T09:29:25.424Z,2.50
2019-05-15T09:32:33.501Z,2.63
2019-05-15T09:35:40.639Z,2.10
2019-05-15T09:38:49.089Z,2.40
2019-05-15T09:41:57.899Z,2.03
2019-05-15T09:45:08.715Z,2.37
2019-05-15T09:48:16.085Z,2.47
2019-05-15T09:51:23.437Z,2.90
2019-05-15T09:54:31.100Z,2.83
2019-05-15T09:57:38.965Z,3.00
2019-05-15T10:00:51.330Z,2.60
2019-05-15T10:03:56.340Z,2.80
2019-05-15T10:07:04.288Z,2.63
2019-05-15T10:10:11.852Z,2.97
2019-05-15T10:13:19.549Z,2.37
2019-05-15T10:16:27.252Z,3.10
2019-05-15T10:19:34.958Z,3.00
2019-05-15T10:22:42.635Z,2.33
2019-05-15T10:25:50.798Z,2.40
2019-05-15T10:28:58.733Z,2.20
2019-05-15T10:32:08.659Z,2.53
2019-05-15T10:35:25.770Z,2.20
2019-05-15T10:38:28.308Z,2.20
2019-05-15T10:41:35.566Z,3.00
2019-05-15T10:44:42.908Z,2.47
2019-05-15T10:47:50.429Z,2.10
2019-05-15T10:51:05.508Z,2.20
2019-05-15T10:54:08.577Z,1.57
2019-05-15T10:57:18.804Z,1.97
2019-05-15T11:00:28.329Z,1.80
2019-05-15T11:03:35.601Z,2.20
2019-05-15T11:06:43.157Z,2.47
2019-05-15T11:09:50.548Z,2.60
2019-05-15T11:12:58.148Z,1.67
2019-05-15T11:16:06.057Z,1.90
2019-05-15T11:19:13.731Z,1.83
2019-05-15T11:22:21.481Z,1.70
2019-05-15T11:25:30.169Z,1.80
2019-05-15T11:28:39.016Z,1.83
2019-05-15T11:31:48.748Z,1.90
2019-05-15T11:34:58.272Z,2.10
2019-05-15T11:38:09.628Z,1.97
2019-05-15T11:41:19.230Z,2.00
2019-05-15T11:44:28.093Z,1.80
2019-05-15T11:47:39.069Z,5.87
2019-05-15T11:50:46.185Z,2.63
2019-05-15T11:53:53.828Z,1.83
2019-05-15T11:57:01.528Z,1.97
2019-05-15T12:00:17.175Z,1.70
2019-05-15T12:03:19.797Z,1.60
2019-05-15T12:06:29.199Z,1.60
2019-05-15T12:09:38.801Z,1.47
2019-05-15T12:12:49.480Z,1.63
2019-05-15T12:15:55.881Z,2.00
2019-05-15T12:19:09.014Z,1.60
2019-05-15T12:22:12.903Z,1.30
2019-05-15T12:25:20.065Z,1.80
2019-05-15T12:28:29.557Z,1.87
2019-05-15T12:31:38.828Z,1.87
2019-05-15T12:34:49.269Z,2.27
2019-05-15T12:37:55.144Z,1.80
2019-05-15T13:00:01.359Z,1.73
2019-05-15T13:03:09.236Z,1.73
2019-05-15T13:06:19.247Z,2.13
2019-05-15T13:09:27.775Z,1.90
2019-05-15T13:12:38.752Z,1.97
2019-05-15T13:15:48.132Z,2.10
2019-05-15T13:18:55.444Z,1.90
2019-05-15T13:22:02.711Z,1.93
2019-05-15T13:25:12.276Z,1.50
2019-05-15T13:28:20.195Z,1.80
2019-05-15T13:31:28.395Z,1.77
2019-05-15T13:34:38.765Z,2.30
2019-05-15T13:37:45.566Z,1.90
2019-05-15T13:40:53.662Z,1.93
2019-05-15T13:44:01.476Z,1.83
2019-05-15T13:47:09.110Z,1.77
2019-05-15T13:50:19.436Z,1.90
2019-05-15T13:53:27.729Z,2.50
2019-05-15T13:56:34.975Z,2.27
2019-05-15T13:59:42.415Z,2.27
2019-05-15T14:02:49.663Z,1.63
2019-05-15T14:05:58.380Z,2.23
2019-05-15T14:09:08.729Z,2.30
2019-05-15T14:12:17.968Z,1.73
2019-05-15T14:15:25.473Z,2.07
2019-05-15T14:18:32.838Z,1.90
2019-05-15T14:21:40.276Z,2.33
2019-05-15T14:24:48.880Z,2.30
2019-05-15T14:27:59.124Z,1.90
2019-05-15T14:31:09.519Z,2.03
2019-05-15T14:34:18.530Z,2.00
2019-05-15T14:37:25.418Z,1.80
2019-05-15T14:40:32.917Z,2.37
2019-05-15T14:43:40.284Z,2.10
2019-05-15T14:46:50.688Z,2.20
2019-05-15T14:49:58.369Z,2.17
2019-05-15T14:53:06.394Z,2.53
2019-05-15T14:56:13.617Z,2.23
2019-05-15T14:59:21.756Z,2.40
2019-05-15T15:02:29.237Z,2.77
2019-05-15T15:05:38.858Z,2.67
2019-05-15T15:08:46.462Z,2.30
2019-05-15T15:11:55.612Z,3.17
2019-05-15T15:15:04.202Z,2.73
2019-05-15T15:18:11.785Z,2.70
2019-05-15T15:21:22.656Z,2.70
2019-05-15T15:24:29.239Z,2.20
2019-05-15T15:27:38.771Z,2.90
2019-05-15T15:30:48.515Z,3.07
2019-05-15T15:33:57.942Z,2.63
2019-05-15T15:37:05.549Z,2.63
2019-05-15T15:40:15.178Z,3.10
2019-05-15T15:43:22.873Z,2.73
2019-05-15T15:46:30.911Z,2.93
2019-05-15T15:49:38.944Z,3.50
2019-05-15T15:52:48.843Z,3.10
2019-05-15T15:55:56.032Z,3.30
2019-05-15T15:59:03.837Z,3.27
2019-05-15T16:02:11.553Z,3.37
2019-05-15T16:05:19.345Z,3.50
2019-05-15T16:08:28.554Z,3.37
2019-05-15T16:11:38.410Z,3.37
2019-05-15T16:14:48.664Z,3.70
2019-05-15T16:17:55.982Z,3.63
2019-05-15T16:21:03.751Z,4.50
2019-05-15T16:24:17.411Z,3.43
2019-05-15T16:27:20.819Z,4.13
2019-05-15T16:30:28.435Z,3.60
2019-05-15T16:33:38.846Z,3.60
2019-05-15T16:36:45.987Z,3.30
2019-05-15T16:39:53.141Z,3.80
2019-05-15T16:43:00.646Z,3.30
2019-05-15T16:46:09.222Z,4.30
2019-05-15T16:49:18.719Z,3.20
2019-05-15T16:52:26.122Z,3.47
2019-05-15T16:55:33.503Z,4.10
2019-05-15T16:58:40.706Z,3.57
2019-05-15T17:01:48.897Z,3.37
2019-05-15T17:04:56.678Z,3.63
2019-05-15T17:08:04.236Z,3.70
2019-05-15T17:11:11.491Z,3.53
2019-05-15T17:14:19.980Z,3.70
2019-05-15T17:17:27.442Z,3.53
2019-05-15T17:20:34.712Z,3.17
2019-05-15T17:23:41.976Z,3.20
2019-05-15T17:26:49.241Z,3.77
2019-05-15T17:29:58.456Z,3.47
2019-05-15T17:33:05.922Z,4.13
2019-05-15T17:36:13.061Z,3.20
2019-05-15T17:39:33.824Z,3.43
2019-05-15T17:42:29.796Z,3.30
2019-05-15T17:45:38.989Z,3.83
2019-05-15T17:48:54.236Z,3.50
2019-05-15T17:51:58.097Z,3.33
2019-05-15T17:55:05.654Z,4.00
2019-05-15T17:58:13.161Z,2.90
2019-05-15T18:01:20.651Z,3.43
2019-05-15T18:04:28.332Z,3.17
2019-05-15T18:07:35.819Z,3.27
2019-05-15T18:10:43.107Z,3.07
2019-05-15T18:13:50.563Z,3.63
2019-05-15T18:16:58.557Z,3.27
2019-05-15T18:20:09.411Z,3.30
2019-05-15T18:23:15.443Z,3.20
2019-05-15T18:26:23.080Z,2.97
2019-05-15T18:29:30.615Z,3.63
2019-05-15T18:32:39.266Z,3.77
2019-05-15T18:35:48.517Z,4.37
2019-05-15T18:38:58.685Z,3.80
2019-05-15T18:42:06.029Z,3.97
2019-05-15T18:45:14.244Z,4.40
2019-05-15T18:48:21.605Z,3.70
2019-05-15T18:51:29.089Z,4.17
2019-05-15T18:54:38.291Z,3.80
2019-05-15T18:57:45.645Z,4.50
2019-05-15T19:00:53.624Z,3.90
2019-05-15T19:04:01.744Z,4.00
2019-05-15T19:07:09.066Z,3.80
2019-05-15T19:10:18.716Z,4.13
2019-05-15T19:13:28.166Z,4.13
2019-05-15T19:16:38.518Z,4.60
2019-05-15T19:19:44.558Z,3.93
2019-05-15T19:22:52.287Z,4.53
2019-05-15T19:25:59.476Z,4.10
2019-05-15T19:29:08.249Z,4.47
2019-05-15T19:32:17.751Z,5.27
2019-05-15T19:35:27.855Z,6.23
2019-05-15T19:38:34.891Z,5.73
2019-05-15T19:41:42.853Z,5.50
2019-05-15T19:44:50.233Z,4.83
2019-05-15T19:47:58.651Z,4.83
2019-05-15T19:51:08.968Z,4.50
2019-05-15T19:54:18.208Z,5.13
2019-05-15T19:57:25.425Z,4.60
2019-05-15T20:00:32.937Z,5.00
2019-05-15T20:03:49.265Z,4.83
2019-05-15T20:06:49.477Z,5.27
2019-05-15T20:09:58.408Z,5.33
2019-05-15T20:13:06.321Z,5.90
2019-05-15T20:16:13.491Z,5.83
2019-05-15T20:19:21.242Z,5.57
2019-05-15T20:22:28.804Z,4.77
2019-05-15T20:25:38.268Z,5.47
2019-05-15T20:28:48.110Z,5.17
2019-05-15T20:31:55.905Z,5.27
2019-05-15T20:35:05.036Z,5.20
2019-05-15T20:38:13.327Z,5.47
2019-05-15T20:41:20.539Z,6.17
2019-05-15T20:44:27.988Z,6.50
2019-05-15T20:47:38.588Z,6.60
2019-05-15T20:50:48.096Z,6.50
2019-05-15T20:53:54.936Z,6.60
2019-05-15T20:57:02.733Z,7.20
2019-05-15T21:00:13.311Z,6.27
2019-05-15T21:03:20.560Z,6.43
2019-05-15T21:06:28.335Z,6.30
2019-05-15T21:09:35.682Z,6.63
2019-05-15T21:12:43.065Z,7.73
2019-05-15T21:15:50.675Z,7.33
2019-05-15T21:19:00.227Z,7.23
2019-05-15T21:22:08.354Z,6.73
2019-05-15T21:25:19.108Z,6.80
2019-05-15T21:28:27.788Z,6.93
2019-05-15T21:31:37.968Z,5.97
2019-05-15T21:34:44.777Z,5.90
2019-05-15T21:37:52.042Z,6.23
2019-05-15T21:40:59.762Z,6.60
2019-05-15T21:44:08.499Z,6.60
2019-05-15T21:47:16.029Z,7.80
2019-05-15T21:50:24.228Z,7.40
2019-05-15T21:53:31.688Z,7.77
2019-05-15T21:56:38.983Z,7.23
2019-05-15T21:59:46.523Z,7.10
2019-05-15T22:02:54.121Z,7.10
2019-05-15T22:06:01.593Z,7.03
2019-05-15T22:09:13.341Z,6.20
2019-05-15T22:12:20.831Z,6.77
2019-05-15T22:15:28.723Z,7.13
2019-05-15T22:18:38.462Z,6.13
2019-05-15T22:21:45.860Z,6.50
2019-05-15T22:24:53.211Z,6.50
2019-05-15T22:28:00.582Z,6.40
2019-05-15T22:31:08.862Z,6.47
2019-05-15T22:34:18.422Z,7.00
2019-05-15T22:37:25.775Z,6.83
2019-05-15T22:40:33.315Z,6.03
2019-05-15T22:43:40.571Z,6.37
2019-05-15T22:46:48.775Z,7.43
2019-05-15T22:49:56.075Z,6.73
2019-05-15T22:53:03.737Z,7.83
2019-05-15T22:56:11.454Z,6.90
2019-05-15T22:59:18.935Z,8.00
2019-05-15T23:02:26.287Z,6.73
2019-05-15T23:05:33.435Z,7.17
2019-05-15T23:08:41.199Z,6.83
2019-05-15T23:11:48.555Z,7.27
2019-05-15T23:14:57.831Z,7.20
2019-05-15T23:18:05.288Z,7.10
2019-05-15T23:21:12.555Z,7.17
2019-05-15T23:24:20.131Z,7.13
2019-05-15T23:27:28.753Z,6.83
2019-05-15T23:30:36.564Z,7.37
2019-05-15T23:33:44.367Z,7.27
2019-05-15T23:36:51.508Z,7.77
2019-05-15T23:39:58.772Z,7.83
2019-05-15T23:43:08.694Z,7.37
2019-05-15T23:46:15.366Z,7.77
2019-05-15T23:49:22.583Z,7.00
2019-05-15T23:52:29.838Z,7.17
2019-05-15T23:55:37.262Z,8.10
2019-05-15T23:58:44.445Z,7.27
